Time;durP1;ratioP1;P1;durP2;ratioP2;P2;SDS_P1;SDS_P2;PMS_P1;PMS_P2;Temp;Humidity;BMP_temperature;BMP_pressure;BME280_temperature;BME280_humidity;BME280_pressure;Samples;Min_cycle;Max_cycle;Signal;HPM_P1;HPM_P2
2022/07/24 00:00:08;;;;;;;1999.90;999.90;;;14.60;99.90;;;;;;5112915;27;20430;-77
2022/07/24 00:02:34;;;;;;;1999.90;999.90;;;14.60;99.90;;;;;;5114207;27;20452;-76
2022/07/24 00:05:01;;;;;;;1999.90;999.90;;;14.60;99.90;;;;;;5095030;27;20043;-76
2022/07/24 00:07:27;;;;;;;1999.90;999.90;;;14.60;99.90;;;;;;5110544;27;20467;-75
2022/07/24 00:09:53;;;;;;;1999.90;999.90;;;14.50;99.90;;;;;;5109010;27;20130;-76
2022/07/24 00:12:19;;;;;;;1999.90;999.90;;;14.50;99.90;;;;;;5114217;27;20122;-76
2022/07/24 00:14:44;;;;;;;1999.90;999.90;;;14.50;99.90;;;;;;5096113;27;20035;-76
2022/07/24 00:17:10;;;;;;;1999.90;999.90;;;14.50;99.90;;;;;;5094202;27;20507;-76
2022/07/24 00:19:36;;;;;;;1999.90;999.90;;;14.40;99.90;;;;;;5110909;27;20046;-76
2022/07/24 00:22:02;;;;;;;1999.90;999.90;;;14.40;99.90;;;;;;5119997;27;20053;-76
2022/07/24 00:24:28;;;;;;;1999.90;999.90;;;14.40;99.90;;;;;;5094704;27;20039;-76
2022/07/24 00:26:54;;;;;;;1999.90;999.90;;;14.30;99.90;;;;;;5094883;27;20086;-76
2022/07/24 00:29:19;;;;;;;1999.90;999.90;;;14.30;99.90;;;;;;5124708;27;20431;-76
2022/07/24 00:31:45;;;;;;;1999.90;999.90;;;14.30;99.90;;;;;;5125984;27;20031;-76
2022/07/24 00:34:11;;;;;;;1999.90;999.90;;;14.30;99.90;;;;;;5099772;27;20228;-77
2022/07/24 00:36:36;;;;;;;1999.90;999.90;;;14.30;99.90;;;;;;5108035;27;20501;-76
2022/07/24 00:39:03;;;;;;;1999.90;999.90;;;14.30;99.90;;;;;;5093287;27;20057;-76
2022/07/24 00:41:28;;;;;;;1999.90;999.90;;;14.30;99.90;;;;;;5090638;27;21262;-77
2022/07/24 00:44:12;;;;;;;1999.90;999.90;;;14.30;99.90;;;;;;5091938;27;20418;-76
2022/07/24 00:46:40;;;;;;;1999.90;999.90;;;14.20;99.90;;;;;;5094588;27;20075;-76
2022/07/24 00:49:08;;;;;;;1999.90;999.90;;;14.30;99.90;;;;;;5092781;27;20032;-76
2022/07/24 00:51:34;;;;;;;1999.90;999.90;;;14.30;99.90;;;;;;5095318;27;20088;-76
2022/07/24 00:54:05;;;;;;;1999.90;999.90;;;14.30;99.90;;;;;;5095299;27;20436;-76
2022/07/24 00:56:31;;;;;;;1999.90;999.90;;;14.30;99.90;;;;;;5094011;27;20122;-76
2022/07/24 00:58:56;;;;;;;1999.90;999.90;;;14.30;99.90;;;;;;5105142;27;20126;-76
2022/07/24 01:01:22;;;;;;;1999.90;999.90;;;14.30;99.90;;;;;;5110431;27;20478;-76
2022/07/24 01:03:48;;;;;;;1999.90;999.90;;;14.20;99.90;;;;;;5111770;27;21031;-76
2022/07/24 01:06:14;;;;;;;1999.90;999.90;;;14.20;99.90;;;;;;5094796;27;20082;-76
2022/07/24 01:08:42;;;;;;;1999.90;999.90;;;14.20;99.90;;;;;;5107978;27;20028;-76
2022/07/24 01:11:09;;;;;;;1999.90;999.90;;;14.20;99.90;;;;;;5095927;27;20038;-76
2022/07/24 01:13:35;;;;;;;1999.90;999.90;;;14.10;99.90;;;;;;5107611;27;20673;-76
2022/07/24 01:16:01;;;;;;;1999.90;999.90;;;14.10;99.90;;;;;;5112870;27;20086;-76
2022/07/24 01:18:27;;;;;;;1999.90;999.90;;;14.10;99.90;;;;;;5093981;27;20078;-76
2022/07/24 01:20:52;;;;;;;1999.90;999.90;;;14.10;99.90;;;;;;5112918;27;20067;-76
2022/07/24 01:23:18;;;;;;;1999.90;999.90;;;14.00;99.90;;;;;;5107438;27;20035;-76
2022/07/24 01:25:44;;;;;;;1999.90;999.90;;;14.00;99.90;;;;;;5095407;27;20084;-76
2022/07/24 01:28:09;;;;;;;1999.90;999.90;;;14.00;99.90;;;;;;5095389;27;20043;-76
2022/07/24 01:30:35;;;;;;;1999.90;999.90;;;14.10;99.90;;;;;;5095830;27;20391;-76
2022/07/24 01:33:02;;;;;;;1999.90;999.90;;;14.10;99.90;;;;;;5094299;27;20034;-76
2022/07/24 01:35:27;;;;;;;1999.90;999.90;;;14.10;99.90;;;;;;5091301;27;20045;-76
2022/07/24 01:37:53;;;;;;;1999.90;999.90;;;14.10;99.90;;;;;;5104802;27;20042;-76
2022/07/24 01:40:20;;;;;;;1999.90;999.90;;;14.10;99.90;;;;;;5103474;27;20504;-76
2022/07/24 01:42:46;;;;;;;1999.90;999.90;;;14.10;99.90;;;;;;5120179;27;20039;-76
2022/07/24 01:45:13;;;;;;;1999.90;999.90;;;14.10;99.90;;;;;;5095802;27;20494;-76
2022/07/24 01:47:40;;;;;;;1999.90;999.90;;;14.10;99.90;;;;;;5115321;27;20395;-76
2022/07/24 01:50:06;;;;;;;1999.90;999.90;;;14.10;99.90;;;;;;5100914;27;20135;-76
2022/07/24 01:52:32;;;;;;;1999.90;999.90;;;14.10;99.90;;;;;;5120261;27;20043;-76
2022/07/24 01:54:57;;;;;;;1999.90;999.90;;;14.10;99.90;;;;;;5100058;27;20080;-76
2022/07/24 01:57:23;;;;;;;1999.90;999.90;;;14.20;99.90;;;;;;5126319;27;20104;-76
2022/07/24 01:59:49;;;;;;;1999.90;999.90;;;14.20;99.90;;;;;;5114275;27;20049;-77
2022/07/24 02:02:14;;;;;;;1999.90;999.90;;;14.20;99.90;;;;;;5112495;27;21260;-76
2022/07/24 02:04:40;;;;;;;1999.90;999.90;;;14.20;99.90;;;;;;5105104;27;20501;-77
2022/07/24 02:07:06;;;;;;;1999.90;999.90;;;14.30;99.90;;;;;;5111887;27;20043;-77
2022/07/24 02:09:31;;;;;;;1999.90;999.90;;;14.30;99.90;;;;;;5110319;27;20513;-77
2022/07/24 02:11:57;;;;;;;1999.90;999.90;;;14.30;99.90;;;;;;5111489;27;20071;-77
2022/07/24 02:14:22;;;;;;;1999.90;999.90;;;14.40;99.90;;;;;;5117708;27;20115;-76
2022/07/24 02:16:48;;;;;;;1999.90;999.90;;;14.40;99.90;;;;;;5107581;27;20039;-76
2022/07/24 02:19:14;;;;;;;1999.90;999.90;;;14.30;99.90;;;;;;5115024;27;20454;-76
2022/07/24 02:21:40;;;;;;;1999.90;999.90;;;14.40;99.90;;;;;;5118552;27;20039;-76
2022/07/24 02:24:06;;;;;;;1999.90;999.90;;;14.40;99.90;;;;;;5122295;27;20138;-76
2022/07/24 02:26:31;;;;;;;1999.90;999.90;;;14.50;99.90;;;;;;5087607;27;20070;-76
2022/07/24 02:28:57;;;;;;;1999.90;999.90;;;14.40;99.90;;;;;;5098313;27;20513;-76
2022/07/24 02:31:22;;;;;;;1999.90;999.90;;;14.40;99.90;;;;;;5107470;27;20035;-76
2022/07/24 02:33:48;;;;;;;1999.90;999.90;;;14.40;99.90;;;;;;5096016;27;20043;-76
2022/07/24 02:36:14;;;;;;;1999.90;999.90;;;14.40;99.90;;;;;;5108157;27;20057;-76
2022/07/24 02:38:40;;;;;;;1999.90;999.90;;;14.50;99.90;;;;;;5095017;28;20058;-76
2022/07/24 02:41:06;;;;;;;1999.90;999.90;;;14.50;99.90;;;;;;5107819;28;20118;-76
2022/07/24 02:43:32;;;;;;;1999.90;999.90;;;14.50;99.90;;;;;;5106134;28;20123;-76
2022/07/24 02:45:57;;;;;;;1999.90;999.90;;;14.50;99.90;;;;;;5107274;27;20067;-76
2022/07/24 02:48:23;;;;;;;1999.90;999.90;;;14.50;99.90;;;;;;5104977;28;20043;-76
2022/07/24 02:50:49;;;;;;;1999.90;999.90;;;14.50;99.90;;;;;;5096998;28;20035;-76
2022/07/24 02:53:15;;;;;;;1999.90;999.90;;;14.50;99.90;;;;;;5106359;28;20104;-76
2022/07/24 02:55:41;;;;;;;1999.90;999.90;;;14.50;99.90;;;;;;5093037;28;20493;-76
2022/07/24 02:58:06;;;;;;;1999.90;999.90;;;14.50;99.90;;;;;;5105208;28;20043;-76
2022/07/24 03:00:32;;;;;;;1999.90;999.90;;;14.50;99.90;;;;;;5106834;28;20104;-76
2022/07/24 03:02:58;;;;;;;1999.90;999.90;;;14.50;99.90;;;;;;5089645;28;20104;-76
2022/07/24 03:05:23;;;;;;;1999.90;999.90;;;14.50;99.90;;;;;;5107186;28;20095;-76
2022/07/24 03:07:49;;;;;;;1999.90;999.90;;;14.60;99.90;;;;;;5103292;28;20043;-76
2022/07/24 03:10:15;;;;;;;1999.90;999.90;;;14.50;99.90;;;;;;5091000;28;20126;-76
2022/07/24 03:12:42;;;;;;;1999.90;999.90;;;14.50;99.90;;;;;;5087801;28;20031;-76
2022/07/24 03:15:10;;;;;;;1999.90;999.90;;;14.50;99.90;;;;;;5104895;28;20713;-76
2022/07/24 03:17:36;;;;;;;1999.90;999.90;;;14.50;99.90;;;;;;5083756;28;20087;-76
2022/07/24 03:20:05;;;;;;;1999.90;999.90;;;14.50;99.90;;;;;;5088408;28;20047;-76
2022/07/24 03:22:30;;;;;;;1999.90;999.90;;;14.50;99.90;;;;;;5106116;28;20054;-76
2022/07/24 03:24:56;;;;;;;1999.90;999.90;;;14.50;99.90;;;;;;5106185;28;20040;-77
2022/07/24 03:27:22;;;;;;;1999.90;999.90;;;14.50;99.90;;;;;;5107291;28;20035;-76
2022/07/24 03:29:47;;;;;;;1999.90;999.90;;;14.50;99.90;;;;;;5088753;28;20035;-77
2022/07/24 03:32:13;;;;;;;1999.90;999.90;;;14.60;99.90;;;;;;5105616;28;20494;-76
2022/07/24 03:34:39;;;;;;;1999.90;999.90;;;14.60;99.90;;;;;;5101227;28;20048;-77
2022/07/24 03:37:04;;;;;;;1999.90;999.90;;;14.60;99.90;;;;;;5098362;28;20050;-77
2022/07/24 03:39:30;;;;;;;1999.90;999.90;;;14.60;99.90;;;;;;5110827;28;20051;-77
2022/07/24 03:41:56;;;;;;;1999.90;999.90;;;14.60;99.90;;;;;;5103881;28;20043;-77
2022/07/24 03:44:21;;;;;;;1999.90;999.90;;;14.70;99.90;;;;;;5087108;28;20042;-77
2022/07/24 03:46:47;;;;;;;1999.90;999.90;;;14.70;99.90;;;;;;5103861;28;20048;-76
2022/07/24 03:49:13;;;;;;;1999.90;999.90;;;14.70;99.90;;;;;;5104016;28;20043;-77
2022/07/24 03:51:38;;;;;;;1999.90;999.90;;;14.70;99.90;;;;;;5089501;28;20062;-76
2022/07/24 03:54:04;;;;;;;1999.90;999.90;;;14.70;99.90;;;;;;5090270;28;20499;-76
2022/07/24 03:56:30;;;;;;;1999.90;999.90;;;14.70;99.90;;;;;;5102987;28;20039;-76
2022/07/24 03:58:56;;;;;;;1999.90;999.90;;;14.70;99.90;;;;;;5102703;28;20044;-76
2022/07/24 04:01:23;;;;;;;1999.90;999.90;;;14.70;99.90;;;;;;5086081;27;20047;-76
2022/07/24 04:03:48;;;;;;;1999.90;999.90;;;14.70;99.90;;;;;;5116573;27;20055;-76
2022/07/24 04:06:14;;;;;;;1999.90;999.90;;;14.80;99.90;;;;;;5092576;28;20047;-76
2022/07/24 04:08:40;;;;;;;1999.90;999.90;;;14.80;99.90;;;;;;5092951;28;20028;-76
2022/07/24 04:11:07;;;;;;;1999.90;999.90;;;14.80;99.90;;;;;;5103276;28;20051;-76
2022/07/24 04:13:33;;;;;;;1999.90;999.90;;;14.80;99.90;;;;;;5091144;28;21798;-76
2022/07/24 04:15:59;;;;;;;1999.90;999.90;;;14.80;99.90;;;;;;5107537;28;20031;-76
2022/07/24 04:18:25;;;;;;;1999.90;999.90;;;14.90;99.90;;;;;;5110334;28;20495;-77
2022/07/24 04:20:51;;;;;;;1999.90;999.90;;;14.90;99.90;;;;;;5090164;28;20047;-76
2022/07/24 04:23:17;;;;;;;1999.90;999.90;;;14.90;99.90;;;;;;5109004;28;20039;-76
2022/07/24 04:25:42;;;;;;;1999.90;999.90;;;14.90;99.90;;;;;;5090610;28;20403;-76
2022/07/24 04:28:08;;;;;;;1999.90;999.90;;;14.90;99.90;;;;;;5091405;28;20089;-76
2022/07/24 04:30:33;;;;;;;1999.90;999.90;;;15.00;99.90;;;;;;5089637;28;20403;-76
2022/07/24 04:32:59;;;;;;;1999.90;999.90;;;15.00;99.90;;;;;;5093156;28;20447;-77
2022/07/24 04:35:25;;;;;;;1999.90;999.90;;;15.00;99.90;;;;;;5096459;27;20031;-76
2022/07/24 04:37:51;;;;;;;1999.90;999.90;;;15.10;99.90;;;;;;5110625;27;20122;-76
2022/07/24 04:40:17;;;;;;;1999.90;999.90;;;15.10;99.90;;;;;;5108692;27;20081;-76
2022/07/24 04:42:43;;;;;;;1999.90;999.90;;;15.10;99.90;;;;;;5096909;27;20488;-77
2022/07/24 04:45:09;;;;;;;1999.90;999.90;;;15.10;99.90;;;;;;5104981;28;20054;-77
2022/07/24 04:47:36;;;;;;;1999.90;999.90;;;15.20;99.90;;;;;;5107521;28;20092;-76
2022/07/24 04:50:03;;;;;;;1999.90;999.90;;;15.20;99.90;;;;;;5083978;28;20478;-76
2022/07/24 04:52:29;;;;;;;1999.90;999.90;;;15.30;99.90;;;;;;5084207;27;20403;-77
2022/07/24 04:54:55;;;;;;;1999.90;999.90;;;15.30;99.90;;;;;;5090833;28;20028;-76
2022/07/24 04:57:20;;;;;;;1999.90;999.90;;;15.30;99.90;;;;;;5115416;27;20039;-76
2022/07/24 04:59:46;;;;;;;1999.90;999.90;;;15.40;99.90;;;;;;5111361;27;20495;-76
2022/07/24 05:02:11;;;;;;;1999.90;999.90;;;15.50;99.90;;;;;;5107511;27;20130;-76
2022/07/24 05:04:37;;;;;;;1999.90;999.90;;;15.60;99.90;;;;;;5086948;27;20036;-76
2022/07/24 05:07:03;;;;;;;1999.90;999.90;;;15.70;99.90;;;;;;5106987;27;20497;-77
2022/07/24 05:09:29;;;;;;;1999.90;999.90;;;15.80;99.90;;;;;;5106938;27;20034;-76
2022/07/24 05:11:54;;;;;;;1999.90;999.90;;;15.80;99.90;;;;;;5108745;27;20119;-76
2022/07/24 05:14:20;;;;;;;1999.90;999.90;;;15.80;99.90;;;;;;5114248;27;20046;-76
2022/07/24 05:16:46;;;;;;;1999.90;999.90;;;15.90;99.90;;;;;;5123829;27;20509;-76
2022/07/24 05:19:12;;;;;;;1999.90;999.90;;;16.00;99.90;;;;;;5107466;27;20040;-76
2022/07/24 05:21:38;;;;;;;1999.90;999.90;;;16.10;99.90;;;;;;5091862;27;20040;-76
2022/07/24 05:24:04;;;;;;;1999.90;999.90;;;16.20;99.90;;;;;;5088838;27;20035;-76
2022/07/24 05:26:31;;;;;;;1999.90;999.90;;;16.30;99.90;;;;;;5105147;27;20073;-76
2022/07/24 05:28:59;;;;;;;1999.90;999.90;;;16.40;99.90;;;;;;5093364;27;20049;-77
2022/07/24 05:31:24;;;;;;;1999.90;999.90;;;16.50;99.90;;;;;;5108126;28;20047;-77
2022/07/24 05:33:50;;;;;;;1999.90;999.90;;;16.60;99.90;;;;;;5106066;27;20032;-77
2022/07/24 05:36:16;;;;;;;1999.90;999.90;;;16.80;99.90;;;;;;5092198;28;20050;-77
2022/07/24 05:38:43;;;;;;;1999.90;999.90;;;16.80;99.90;;;;;;5086389;27;20184;-77
2022/07/24 05:41:09;;;;;;;1999.90;999.90;;;16.90;99.90;;;;;;5112250;27;20049;-76
2022/07/24 05:43:35;;;;;;;1999.90;999.90;;;16.90;99.90;;;;;;5092725;28;20113;-76
2022/07/24 05:46:01;;;;;;;1999.90;999.90;;;16.80;99.90;;;;;;5102275;27;20067;-76
2022/07/24 05:48:26;;;;;;;1999.90;999.90;;;16.90;99.90;;;;;;5100358;27;20110;-76
2022/07/24 05:50:52;;;;;;;1999.90;999.90;;;17.00;99.90;;;;;;5087208;28;20047;-77
2022/07/24 05:53:18;;;;;;;1999.90;999.90;;;17.30;99.90;;;;;;5108624;28;20040;-76
2022/07/24 05:55:43;;;;;;;1999.90;999.90;;;17.50;99.90;;;;;;5086997;27;20118;-76
2022/07/24 05:58:09;;;;;;;1999.90;999.90;;;17.50;99.90;;;;;;5113661;27;20035;-77
2022/07/24 06:00:34;;;;;;;1999.90;999.90;;;17.60;99.90;;;;;;5090213;27;20067;-77
2022/07/24 06:03:00;;;;;;;1999.90;999.90;;;17.80;99.90;;;;;;5107994;27;20047;-76
2022/07/24 06:05:26;;;;;;;1999.90;999.90;;;18.00;99.90;;;;;;5108941;28;20116;-76
2022/07/24 06:07:52;;;;;;;1999.90;999.90;;;18.20;99.90;;;;;;5108445;28;20040;-76
2022/07/24 06:10:17;;;;;;;1999.90;999.90;;;18.30;99.90;;;;;;5088927;28;20405;-77
2022/07/24 06:12:43;;;;;;;1999.90;999.90;;;19.10;99.90;;;;;;5099683;28;20143;-77
2022/07/24 06:15:09;;;;;;;1999.90;999.90;;;20.00;99.90;;;;;;5095592;27;20111;-76
2022/07/24 06:17:35;;;;;;;1999.90;999.90;;;20.80;99.90;;;;;;5075783;28;20204;-76
2022/07/24 06:20:00;;;;;;;1999.90;999.90;;;21.30;99.90;;;;;;5096027;28;20052;-76
2022/07/24 06:22:26;;;;;;;1999.90;999.90;;;21.90;99.90;;;;;;5101925;28;20047;-77
2022/07/24 06:24:52;;;;;;;1999.90;999.90;;;22.20;99.90;;;;;;5087455;28;20048;-76
2022/07/24 06:27:17;;;;;;;1999.90;999.90;;;22.40;99.90;;;;;;5102924;27;20031;-76
2022/07/24 06:29:43;;;;;;;1999.90;999.90;;;22.50;99.90;;;;;;5090427;28;20446;-77
2022/07/24 06:32:09;;;;;;;1999.90;999.90;;;22.80;99.90;;;;;;5103224;28;20169;-77
2022/07/24 06:34:34;;;;;;;1999.90;999.90;;;23.10;99.90;;;;;;5097187;28;20399;-76
2022/07/24 06:37:00;;;;;;;1999.90;999.90;;;23.30;99.90;;;;;;5101149;28;20043;-76
2022/07/24 06:39:25;;;;;;;1999.90;999.90;;;23.40;99.90;;;;;;5121575;27;20062;-76
2022/07/24 06:41:51;;;;;;;1999.90;999.90;;;23.40;99.90;;;;;;5112940;27;20038;-77
2022/07/24 06:44:17;;;;;;;1999.90;999.90;;;23.50;99.90;;;;;;5110571;27;20494;-77
2022/07/24 06:46:42;;;;;;;1999.90;999.90;;;23.70;99.90;;;;;;5110442;27;20066;-76
2022/07/24 06:49:08;;;;;;;1999.90;999.90;;;23.90;99.90;;;;;;5094168;27;20466;-77
2022/07/24 06:51:33;;;;;;;1999.90;999.90;;;24.20;99.90;;;;;;5111432;28;20031;-78
2022/07/24 06:53:59;;;;;;;1999.90;999.90;;;24.50;99.90;;;;;;5092819;27;20479;-78
2022/07/24 06:56:24;;;;;;;1999.90;999.90;;;24.60;99.90;;;;;;5087081;27;20031;-78
2022/07/24 06:58:50;;;;;;;1999.90;999.90;;;24.80;99.90;;;;;;5094462;27;20501;-78
2022/07/24 07:01:16;;;;;;;1999.90;999.90;;;24.70;99.90;;;;;;5122869;27;20038;-78
2022/07/24 07:03:42;;;;;;;1999.90;999.90;;;24.80;99.90;;;;;;5111045;27;20035;-78
2022/07/24 07:06:08;;;;;;;1999.90;999.90;;;24.90;99.90;;;;;;5111977;27;20380;-78
2022/07/24 07:08:34;;;;;;;1999.90;999.90;;;25.00;99.90;;;;;;5093884;27;20396;-78
2022/07/24 07:10:59;;;;;;;1999.90;999.90;;;25.10;99.90;;;;;;5092790;27;20489;-77
2022/07/24 07:13:25;;;;;;;1999.90;999.90;;;25.10;99.90;;;;;;5114558;28;20027;-77
2022/07/24 07:15:51;;;;;;;1999.90;999.90;;;25.30;99.90;;;;;;5099488;27;20043;-77
2022/07/24 07:18:16;;;;;;;1999.90;999.90;;;25.40;99.10;;;;;;5095020;28;20043;-78
2022/07/24 07:20:42;;;;;;;1999.90;999.90;;;25.40;99.90;;;;;;5105726;28;20050;-78
2022/07/24 07:23:07;;;;;;;1999.90;999.90;;;26.20;99.90;;;;;;5110829;28;20039;-77
2022/07/24 07:25:33;;;;;;;1999.90;999.90;;;26.90;98.30;;;;;;5093590;27;20522;-78
2022/07/24 07:27:59;;;;;;;1999.90;999.90;;;27.50;98.70;;;;;;5099868;27;20079;-78
2022/07/24 07:30:24;;;;;;;1999.90;999.90;;;27.60;94.40;;;;;;5121347;27;20441;-77
2022/07/24 07:32:50;;;;;;;1999.90;999.90;;;26.90;94.20;;;;;;5106378;28;20046;-79
2022/07/24 07:35:15;;;;;;;1999.90;999.90;;;25.80;94.50;;;;;;5111637;27;20031;-78
2022/07/24 07:37:44;;;;;;;1999.90;999.90;;;24.90;94.80;;;;;;5116330;27;20084;-78
2022/07/24 07:40:10;;;;;;;1999.90;999.90;;;24.20;95.70;;;;;;5112972;27;20055;-78
2022/07/24 07:42:36;;;;;;;1999.90;999.90;;;23.80;97.10;;;;;;5113109;27;20096;-78
2022/07/24 07:45:01;;;;;;;1999.90;999.90;;;23.60;98.10;;;;;;5114742;27;20039;-78
2022/07/24 07:47:27;;;;;;;1999.90;999.90;;;23.50;99.10;;;;;;5113165;27;20445;-78
2022/07/24 07:49:53;;;;;;;1999.90;999.90;;;23.40;99.40;;;;;;5130840;27;20440;-77
2022/07/24 07:52:18;;;;;;;1999.90;999.90;;;23.30;99.90;;;;;;5113888;27;20061;-78
2022/07/24 07:54:45;;;;;;;1999.90;999.90;;;23.10;99.00;;;;;;5091914;27;20073;-78
2022/07/24 07:57:10;;;;;;;1999.90;999.90;;;23.10;99.90;;;;;;5088836;27;20092;-78
2022/07/24 07:59:36;;;;;;;1999.90;999.90;;;23.30;99.90;;;;;;5097221;27;20752;-78
2022/07/24 08:02:01;;;;;;;1999.90;999.90;;;23.40;99.90;;;;;;5096122;27;20377;-78
2022/07/24 08:04:27;;;;;;;1999.90;999.90;;;23.60;99.90;;;;;;5098663;27;20039;-77
2022/07/24 08:06:53;;;;;;;1999.90;999.90;;;23.80;99.90;;;;;;5099196;27;20043;-77
2022/07/24 08:09:20;;;;;;;1999.90;999.90;;;24.00;99.90;;;;;;5120981;27;20035;-77
2022/07/24 08:11:46;;;;;;;1999.90;999.90;;;24.20;99.90;;;;;;5097003;27;20518;-78
2022/07/24 08:14:12;;;;;;;1999.90;999.90;;;24.20;99.60;;;;;;5097362;27;20035;-78
2022/07/24 08:16:38;;;;;;;1999.90;999.90;;;24.20;99.50;;;;;;5097734;27;20054;-78
2022/07/24 08:19:03;;;;;;;1999.90;999.90;;;24.20;99.80;;;;;;5104788;27;20131;-78
2022/07/24 08:21:31;;;;;;;1999.90;999.90;;;24.30;99.90;;;;;;5133366;27;20062;-77
2022/07/24 08:23:57;;;;;;;1999.90;999.90;;;24.50;99.70;;;;;;5096811;27;20046;-78
2022/07/24 08:26:22;;;;;;;1999.90;999.90;;;24.50;99.10;;;;;;5113375;27;20039;-77
2022/07/24 08:28:48;;;;;;;1999.90;999.90;;;24.50;98.20;;;;;;5100406;27;20039;-78
2022/07/24 08:31:14;;;;;;;1999.90;999.90;;;24.40;98.90;;;;;;5113930;27;20039;-78
2022/07/24 08:33:39;;;;;;;1999.90;999.90;;;24.30;98.20;;;;;;5113479;27;20035;-78
2022/07/24 08:36:05;;;;;;;1999.90;999.90;;;24.30;99.00;;;;;;5118210;27;20042;-79
2022/07/24 08:38:31;;;;;;;1999.90;999.90;;;24.40;99.40;;;;;;5116709;27;20060;-78
2022/07/24 08:40:57;;;;;;;1999.90;999.90;;;24.60;98.20;;;;;;5098762;28;20419;-78
2022/07/24 08:43:23;;;;;;;1999.90;999.90;;;24.90;99.00;;;;;;5102525;27;20031;-77
2022/07/24 08:45:50;;;;;;;1999.90;999.90;;;25.20;98.80;;;;;;5105348;27;20460;-78
2022/07/24 08:48:17;;;;;;;1999.90;999.90;;;25.60;98.20;;;;;;5120383;27;20158;-77
2022/07/24 08:50:43;;;;;;;1999.90;999.90;;;26.00;97.80;;;;;;5107277;27;20114;-78
2022/07/24 08:53:09;;;;;;;1999.90;999.90;;;26.20;96.70;;;;;;5117530;27;20100;-78
2022/07/24 08:55:34;;;;;;;1999.90;999.90;;;26.60;96.80;;;;;;5092486;28;20498;-77
2022/07/24 08:58:01;;;;;;;1999.90;999.90;;;26.90;96.30;;;;;;5110573;28;20043;-74
2022/07/24 09:00:29;;;;;;;1999.90;999.90;;;26.80;96.10;;;;;;5104573;27;20157;-77
2022/07/24 09:02:55;;;;;;;1999.90;999.90;;;26.50;95.10;;;;;;5094104;28;20142;-78
2022/07/24 09:05:21;;;;;;;1999.90;999.90;;;26.30;95.60;;;;;;5093072;28;20125;-78
2022/07/24 09:07:46;;;;;;;1999.90;999.90;;;26.00;95.20;;;;;;5115893;27;20050;-78
2022/07/24 09:10:15;;;;;;;1999.90;999.90;;;26.00;94.50;;;;;;5101152;27;20082;-78
2022/07/24 09:12:47;;;;;;;1999.90;999.90;;;26.00;94.80;;;;;;5110111;28;20036;-78
2022/07/24 09:15:23;;;;;;;1999.90;999.90;;;26.30;95.10;;;;;;5110492;28;20570;-79
2022/07/24 09:17:51;;;;;;;1999.90;999.90;;;26.80;93.90;;;;;;5101162;28;20406;-78
2022/07/24 09:20:17;;;;;;;1999.90;999.90;;;27.30;94.10;;;;;;5091925;28;20388;-79
2022/07/24 09:22:43;;;;;;;1999.90;999.90;;;27.80;92.80;;;;;;5092523;28;20039;-78
2022/07/24 09:25:24;;;;;;;1999.90;999.90;;;28.20;93.00;;;;;;5101661;28;20046;-77
2022/07/24 09:27:58;;;;;;;1999.90;999.90;;;28.50;91.80;;;;;;5109185;28;20050;-78
2022/07/24 09:30:29;;;;;;;1999.90;999.90;;;28.50;91.40;;;;;;5109255;28;20491;-79
2022/07/24 09:33:05;;;;;;;1999.90;999.90;;;28.80;91.70;;;;;;5110881;27;20399;-79
2022/07/24 09:35:39;;;;;;;1999.90;999.90;;;28.70;90.50;;;;;;5089487;28;20040;-78
2022/07/24 09:38:10;;;;;;;1999.90;999.90;;;28.70;90.20;;;;;;5108723;27;20043;-78
2022/07/24 09:40:44;;;;;;;1999.90;999.90;;;28.70;89.10;;;;;;5090320;27;20062;-78
2022/07/24 09:43:14;;;;;;;1999.90;999.90;;;28.70;90.00;;;;;;5094289;27;20045;-79
2022/07/24 09:46:10;;;;;;;1999.90;999.90;;;28.50;90.50;;;;;;5104597;27;20039;-78
2022/07/24 09:48:39;;;;;;;1999.90;999.90;;;28.30;89.90;;;;;;5092076;27;20129;-78
2022/07/24 09:51:05;;;;;;;1999.90;999.90;;;28.00;89.50;;;;;;5097823;27;20050;-78
2022/07/24 09:53:35;;;;;;;1999.90;999.90;;;28.00;89.10;;;;;;5101154;27;20468;-78
2022/07/24 09:56:06;;;;;;;1999.90;999.90;;;28.10;91.30;;;;;;5081827;28;20047;-77
2022/07/24 09:58:37;;;;;;;1999.90;999.90;;;28.50;91.00;;;;;;5098691;27;20039;-78
2022/07/24 10:01:04;;;;;;;1999.90;999.90;;;28.60;89.10;;;;;;5088796;27;20085;-79
2022/07/24 10:03:32;;;;;;;1999.90;999.90;;;28.40;88.60;;;;;;5111810;27;20045;-78
2022/07/24 10:06:00;;;;;;;1999.90;999.90;;;28.00;83.90;;;;;;5108569;27;20431;-78
2022/07/24 10:08:27;;;;;;;1999.90;999.90;;;27.60;86.40;;;;;;5111428;27;20043;-78
2022/07/24 10:10:53;;;;;;;1999.90;999.90;;;27.20;87.60;;;;;;5094975;27;20042;-78
2022/07/24 10:13:19;;;;;;;1999.90;999.90;;;26.80;86.10;;;;;;5093377;27;20078;-77
2022/07/24 10:16:04;;;;;;;1999.90;999.90;;;26.60;87.90;;;;;;5091511;27;20086;-78
2022/07/24 10:18:58;;;;;;;1999.90;999.90;;;26.30;88.20;;;;;;5129263;27;20162;-77
2022/07/24 10:21:32;;;;;;;1999.90;999.90;;;26.10;88.90;;;;;;5110740;27;20051;-78
2022/07/24 10:24:03;;;;;;;1999.90;999.90;;;26.00;89.70;;;;;;5100923;27;20618;-75
2022/07/24 10:26:35;;;;;;;1999.90;999.90;;;25.90;90.20;;;;;;5117504;27;20348;-78
2022/07/24 10:29:10;;;;;;;1999.90;999.90;;;25.90;89.30;;;;;;5094302;27;20035;-78
2022/07/24 10:31:38;;;;;;;1999.90;999.90;;;26.20;90.40;;;;;;5090814;27;20054;-77
2022/07/24 10:34:07;;;;;;;1999.90;999.90;;;26.60;90.10;;;;;;5091659;27;20042;-78
2022/07/24 10:36:39;;;;;;;1999.90;999.90;;;26.70;88.60;;;;;;5091124;27;20035;-77
2022/07/24 10:39:14;;;;;;;1999.90;999.90;;;26.80;88.50;;;;;;5110729;27;20057;-78
2022/07/24 10:41:40;;;;;;;1999.90;999.90;;;26.80;88.60;;;;;;5107715;27;20039;-77
2022/07/24 10:44:19;;;;;;;1999.90;999.90;;;27.10;89.90;;;;;;5109152;27;20110;-76
2022/07/24 10:47:04;;;;;;;1999.90;999.90;;;27.60;89.00;;;;;;5093390;27;20131;-78
2022/07/24 10:49:41;;;;;;;1999.90;999.90;;;27.80;88.80;;;;;;5108886;27;20027;-77
2022/07/24 10:52:22;;;;;;;1999.90;999.90;;;27.90;89.60;;;;;;5104660;27;20542;-77
2022/07/24 10:55:08;;;;;;;1999.90;999.90;;;28.30;89.00;;;;;;5105438;27;20122;-77
2022/07/24 10:58:09;;;;;;;1999.90;999.90;;;28.80;87.40;;;;;;5113090;27;20049;-75
2022/07/24 11:00:38;;;;;;;1999.90;999.90;;;29.10;86.00;;;;;;5022148;28;20499;-75
2022/07/24 11:03:24;;;;;;;1999.90;999.90;;;29.20;85.20;;;;;;5023398;28;20053;-75
2022/07/24 11:06:11;;;;;;;1999.90;999.90;;;29.30;83.00;;;;;;5017644;28;20443;-74
2022/07/24 11:08:50;;;;;;;1999.90;999.90;;;29.20;80.00;;;;;;5022218;28;20053;-74
2022/07/24 11:11:18;;;;;;;1999.90;999.90;;;29.00;79.00;;;;;;5033797;28;20135;-76
2022/07/24 11:13:47;;;;;;;1999.90;999.90;;;28.80;81.40;;;;;;5031457;28;20459;-76
2022/07/24 11:16:15;;;;;;;1999.90;999.90;;;28.90;83.50;;;;;;5011638;28;20042;-76
2022/07/24 11:18:49;;;;;;;1999.90;999.90;;;28.80;81.00;;;;;;5010344;28;20099;-76
2022/07/24 11:21:36;;;;;;;1999.90;999.90;;;28.70;81.60;;;;;;5008910;28;20457;-75
2022/07/24 11:24:14;;;;;;;1999.90;999.90;;;28.70;79.70;;;;;;5013905;28;20538;-75
2022/07/24 11:26:50;;;;;;;1999.90;999.90;;;28.60;78.70;;;;;;5005056;28;20471;-75
2022/07/24 11:29:17;;;;;;;1999.90;999.90;;;28.40;79.90;;;;;;5014972;28;20049;-75
2022/07/24 11:31:44;;;;;;;1999.90;999.90;;;28.30;80.10;;;;;;5009464;28;20041;-76
2022/07/24 11:34:10;;;;;;;1999.90;999.90;;;28.40;77.40;;;;;;5016596;28;20094;-75
2022/07/24 11:36:40;;;;;;;1999.90;999.90;;;28.20;79.10;;;;;;5064699;28;20043;-78
2022/07/24 11:39:07;;;;;;;1999.90;999.90;;;28.20;78.80;;;;;;5110460;27;20608;-77
2022/07/24 11:41:54;;;;;;;1999.90;999.90;;;28.10;80.30;;;;;;5093836;28;20045;-75
2022/07/24 11:44:34;;;;;;;1999.90;999.90;;;28.20;79.60;;;;;;5106175;27;20038;-78
2022/07/24 11:47:06;;;;;;;1999.90;999.90;;;28.20;79.20;;;;;;5126483;27;20039;-78
2022/07/24 11:49:38;;;;;;;;;;;28.20;79.70;;;;;;5102173;27;20041;-77
2022/07/24 11:52:04;;;;;;;1999.90;999.90;;;28.30;79.30;;;;;;5119171;28;19919;-74
2022/07/24 11:54:29;;;;;;;1999.90;999.90;;;28.40;81.40;;;;;;5109454;27;20079;-77
2022/07/24 11:56:56;;;;;;;1999.90;999.90;;;28.40;83.40;;;;;;5124472;28;20103;-77
2022/07/24 11:59:29;;;;;;;1999.90;999.90;;;28.50;78.00;;;;;;5103826;28;20122;-77
2022/07/24 12:01:56;;;;;;;;;;;28.40;79.30;;;;;;5093734;27;20045;-77